Time;durP1;ratioP1;P1;durP2;ratioP2;P2;SDS_P1;SDS_P2;PMS_P1;PMS_P2;Temp;Humidity;BMP_temperature;BMP_pressure;BME280_temperature;BME280_humidity;BME280_pressure;Samples;Min_cycle;Max_cycle;Signal;HPM_P1;HPM_P2
2023/04/29 00:01:02;;;;;;;15.02;9.15;;;;;;;;;;5093035;28;20118;-69
2023/04/29 00:03:31;;;;;;;11.82;6.22;;;;;;;;;;5093010;28;20412;-69
2023/04/29 00:06:00;;;;;;;16.55;6.25;;;;;;;;;;5093047;28;20480;-70
2023/04/29 00:08:27;;;;;;;11.38;6.68;;;;;;;;;;5092986;28;20157;-70
2023/04/29 00:10:54;;;;;;;8.38;6.75;;;;;;;;;;5096602;28;20027;-70
2023/04/29 00:13:21;;;;;;;11.18;7.13;;;;;;;;;;5096556;28;20500;-70
2023/04/29 00:15:48;;;;;;;10.45;7.35;;;;;;;;;;5096685;28;20099;-68
2023/04/29 00:18:14;;;;;;;12.93;6.93;;;;;;;;;;5096571;28;20043;-70
2023/04/29 00:20:42;;;;;;;11.43;6.35;;;;;;;;;;5096498;28;20070;-69
2023/04/29 00:23:08;;;;;;;9.88;6.32;;;;;;;;;;5096546;28;20016;-69
2023/04/29 00:25:37;;;;;;;11.13;6.57;;;;;;;;;;5096355;28;20457;-69
2023/04/29 00:28:04;;;;;;;14.50;6.55;;;;;;;;;;5096136;28;20073;-69
2023/04/29 00:30:33;;;;;;;11.48;6.07;;;;;;;;;;5096298;28;20048;-69
2023/04/29 00:33:00;;;;;;;11.95;7.03;;;;;;;;;;5096257;28;20032;-69
2023/04/29 00:35:26;;;;;;;16.17;8.48;;;;;;;;;;5096164;28;20104;-69
2023/04/29 00:37:53;;;;;;;14.88;8.10;;;;;;;;;;5096044;28;20103;-70
2023/04/29 00:40:19;;;;;;;20.90;12.13;;;;;;;;;;5096258;28;20494;-69
2023/04/29 00:42:46;;;;;;;15.32;9.38;;;;;;;;;;5096120;28;20024;-69
2023/04/29 00:45:13;;;;;;;16.83;9.80;;;;;;;;;;5096012;28;20329;-69
2023/04/29 00:47:39;;;;;;;14.80;8.60;;;;;;;;;;5096027;28;20048;-69
2023/04/29 00:50:06;;;;;;;26.13;15.65;;;;;;;;;;5095968;28;20487;-68
2023/04/29 00:52:34;;;;;;;19.05;10.98;;;;;;;;;;5095782;28;20143;-69
2023/04/29 00:55:01;;;;;;;18.40;10.65;;;;;;;;;;5095879;28;20029;-69
2023/04/29 00:57:28;;;;;;;22.58;12.50;;;;;;;;;;5095890;28;20024;-69
2023/04/29 00:59:58;;;;;;;19.00;12.77;;;;;;;;;;5095869;28;20028;-70
2023/04/29 01:02:25;;;;;;;18.95;10.80;;;;;;;;;;5095920;28;20028;-70
2023/04/29 01:04:52;;;;;;;20.48;13.93;;;;;;;;;;5095672;28;20020;-70
2023/04/29 01:07:27;;;;;;;24.00;16.80;;;;;;;;;;5095725;28;20073;-70
2023/04/29 01:10:09;;;;;;;20.42;11.18;;;;;;;;;;5095562;28;20024;-70
2023/04/29 01:12:36;;;;;;;17.75;11.63;;;;;;;;;;5095696;28;20431;-70
2023/04/29 01:15:06;;;;;;;22.38;12.25;;;;;;;;;;5095423;28;20024;-71
2023/04/29 01:17:43;;;;;;;18.52;12.57;;;;;;;;;;5095295;28;20500;-71
2023/04/29 01:20:10;;;;;;;16.88;11.70;;;;;;;;;;5095204;28;20305;-71
2023/04/29 01:22:38;;;;;;;13.10;9.73;;;;;;;;;;5095524;28;20428;-71
2023/04/29 01:25:05;;;;;;;13.75;9.27;;;;;;;;;;5095160;28;20031;-71
2023/04/29 01:27:37;;;;;;;11.95;8.65;;;;;;;;;;5095268;28;20024;-70
2023/04/29 01:30:12;;;;;;;18.15;9.82;;;;;;;;;;5095095;28;20024;-71
2023/04/29 01:32:59;;;;;;;12.95;8.88;;;;;;;;;;5095282;28;20016;-69
2023/04/29 01:35:33;;;;;;;13.75;9.48;;;;;;;;;;5086602;28;20099;-70
2023/04/29 01:38:21;;;;;;;15.52;8.52;;;;;;;;;;5095534;28;20370;-70
2023/04/29 01:40:55;;;;;;;12.35;7.75;;;;;;;;;;5100112;28;20024;-70
2023/04/29 01:43:23;;;;;;;22.45;11.25;;;;;;;;;;5096672;28;20537;-70
2023/04/29 01:45:50;;;;;;;11.93;8.18;;;;;;;;;;5115281;28;20387;-70
2023/04/29 01:48:18;;;;;;;20.42;10.50;;;;;;;;;;5115149;28;20024;-70
2023/04/29 01:50:44;;;;;;;17.73;11.60;;;;;;;;;;5115309;28;20012;-70
2023/04/29 01:53:11;;;;;;;10.40;7.95;;;;;;;;;;5114693;28;20073;-70
2023/04/29 01:55:38;;;;;;;16.20;10.57;;;;;;;;;;5094462;28;20028;-70
2023/04/29 01:58:04;;;;;;;15.23;10.95;;;;;;;;;;5094819;28;20024;-70
2023/04/29 02:00:31;;;;;;;15.18;9.85;;;;;;;;;;5094610;28;20024;-69
2023/04/29 02:02:58;;;;;;;20.10;12.38;;;;;;;;;;5094380;28;20020;-71
2023/04/29 02:05:25;;;;;;;23.73;12.23;;;;;;;;;;5097006;28;20137;-72
2023/04/29 02:07:51;;;;;;;28.83;17.02;;;;;;;;;;5103321;28;20077;-72
2023/04/29 02:10:18;;;;;;;21.85;14.55;;;;;;;;;;5094237;28;20020;-72
2023/04/29 02:12:45;;;;;;;15.60;10.15;;;;;;;;;;5094390;28;20377;-72
2023/04/29 02:15:11;;;;;;;16.25;9.77;;;;;;;;;;5094261;28;20056;-70
2023/04/29 02:17:38;;;;;;;27.17;17.15;;;;;;;;;;5094159;28;20020;-71
2023/04/29 02:20:05;;;;;;;27.10;23.05;;;;;;;;;;5094276;28;20095;-70
2023/04/29 02:22:32;;;;;;;21.45;14.57;;;;;;;;;;5094049;28;20028;-71
2023/04/29 02:24:58;;;;;;;23.88;13.57;;;;;;;;;;5094112;28;20146;-71
2023/04/29 02:27:26;;;;;;;19.15;12.02;;;;;;;;;;5094940;28;20027;-73
2023/04/29 02:29:52;;;;;;;11.55;8.65;;;;;;;;;;5095113;28;20043;-74
2023/04/29 02:32:19;;;;;;;10.80;8.88;;;;;;;;;;5093223;28;20492;-73
2023/04/29 02:34:46;;;;;;;14.57;10.13;;;;;;;;;;5093815;28;20028;-72
2023/04/29 02:37:14;;;;;;;14.27;10.63;;;;;;;;;;5093818;28;20028;-74
2023/04/29 02:39:41;;;;;;;14.27;9.30;;;;;;;;;;5093741;28;20052;-74
2023/04/29 02:42:07;;;;;;;16.95;10.98;;;;;;;;;;5093908;28;20034;-72
2023/04/29 02:44:34;;;;;;;19.10;13.57;;;;;;;;;;5093821;28;20107;-73
2023/04/29 02:47:01;;;;;;;19.05;13.07;;;;;;;;;;5093545;28;20421;-73
2023/04/29 02:49:27;;;;;;;27.58;15.00;;;;;;;;;;5093843;28;20023;-73
2023/04/29 02:51:54;;;;;;;19.63;13.35;;;;;;;;;;5093674;28;20020;-72
2023/04/29 02:54:21;;;;;;;24.05;14.85;;;;;;;;;;5093387;28;20115;-75
2023/04/29 02:56:47;;;;;;;22.77;15.73;;;;;;;;;;5093655;28;20032;-75
2023/04/29 02:59:14;;;;;;;21.67;14.70;;;;;;;;;;5093577;28;20080;-73
2023/04/29 03:01:41;;;;;;;20.02;12.82;;;;;;;;;;5093776;28;20178;-75
2023/04/29 03:04:08;;;;;;;21.80;14.40;;;;;;;;;;5093504;28;20080;-72
2023/04/29 03:06:35;;;;;;;17.55;12.57;;;;;;;;;;5093461;28;20430;-71
2023/04/29 03:09:02;;;;;;;19.40;14.73;;;;;;;;;;5093456;28;20113;-72
2023/04/29 03:11:28;;;;;;;21.27;17.02;;;;;;;;;;5093255;28;20024;-72
2023/04/29 03:13:55;;;;;;;20.90;14.88;;;;;;;;;;5104854;28;20016;-72
2023/04/29 03:16:22;;;;;;;18.30;11.32;;;;;;;;;;5113260;28;20092;-73
2023/04/29 03:18:48;;;;;;;19.00;12.68;;;;;;;;;;5110305;28;20018;-72
2023/04/29 03:21:15;;;;;;;16.85;11.98;;;;;;;;;;5113923;28;20030;-71
2023/04/29 03:23:43;;;;;;;24.02;15.88;;;;;;;;;;5112974;28;20019;-73
2023/04/29 03:26:10;;;;;;;27.98;17.90;;;;;;;;;;5124347;22;20228;-71
2023/04/29 03:28:37;;;;;;;18.95;11.65;;;;;;;;;;5073518;28;20021;-70
2023/04/29 03:31:03;;;;;;;19.50;12.32;;;;;;;;;;5071631;28;20071;-72
2023/04/29 03:33:30;;;;;;;35.72;23.55;;;;;;;;;;5072181;28;20032;-72
2023/04/29 03:35:56;;;;;;;19.95;12.98;;;;;;;;;;5072053;28;20108;-73
2023/04/29 03:38:24;;;;;;;14.15;10.90;;;;;;;;;;5072869;28;20024;-73
2023/04/29 03:40:51;;;;;;;18.48;12.43;;;;;;;;;;5072565;28;20386;-72
2023/04/29 03:43:18;;;;;;;16.50;10.57;;;;;;;;;;5074031;28;20044;-73
2023/04/29 03:45:45;;;;;;;21.20;12.70;;;;;;;;;;5076742;28;20436;-71
2023/04/29 03:48:12;;;;;;;15.43;10.65;;;;;;;;;;5076636;28;20048;-72
2023/04/29 03:50:38;;;;;;;16.30;9.85;;;;;;;;;;5075649;28;20021;-72
2023/04/29 03:53:05;;;;;;;11.98;8.65;;;;;;;;;;5058937;28;20513;-72
2023/04/29 03:55:32;;;;;;;12.10;9.32;;;;;;;;;;5056472;28;20110;-71
2023/04/29 03:57:58;;;;;;;11.18;8.23;;;;;;;;;;5056595;28;20481;-71
2023/04/29 04:00:25;;;;;;;15.18;9.80;;;;;;;;;;5056523;28;20052;-72
2023/04/29 04:02:52;;;;;;;18.52;11.60;;;;;;;;;;5055101;28;20413;-71
2023/04/29 04:05:19;;;;;;;20.83;12.88;;;;;;;;;;5063762;28;20029;-72
2023/04/29 04:07:46;;;;;;;14.93;10.70;;;;;;;;;;5075829;28;20024;-72
2023/04/29 04:10:13;;;;;;;17.33;11.02;;;;;;;;;;5076277;28;20016;-72
2023/04/29 04:12:40;;;;;;;14.65;9.32;;;;;;;;;;5073159;28;20091;-72
2023/04/29 04:15:06;;;;;;;15.13;10.95;;;;;;;;;;5064102;28;20049;-72
2023/04/29 04:17:33;;;;;;;11.48;8.45;;;;;;;;;;5057708;28;20049;-72
2023/04/29 04:20:00;;;;;;;11.93;9.07;;;;;;;;;;5067471;28;20485;-72
2023/04/29 04:22:26;;;;;;;14.40;10.52;;;;;;;;;;5076549;28;20028;-73
2023/04/29 04:24:55;;;;;;;17.30;11.27;;;;;;;;;;5076717;28;20027;-72
2023/04/29 04:27:22;;;;;;;10.90;8.27;;;;;;;;;;5076034;28;20043;-72
2023/04/29 04:29:48;;;;;;;12.98;9.70;;;;;;;;;;5075915;28;20052;-72
2023/04/29 04:32:15;;;;;;;10.55;9.15;;;;;;;;;;5075813;28;20111;-71
2023/04/29 04:34:42;;;;;;;13.73;11.32;;;;;;;;;;5075922;28;20385;-72
2023/04/29 04:37:09;;;;;;;14.00;10.98;;;;;;;;;;5075743;28;20021;-72
2023/04/29 04:39:35;;;;;;;10.65;9.45;;;;;;;;;;5075676;28;20030;-72
2023/04/29 04:42:02;;;;;;;12.50;9.48;;;;;;;;;;5075683;28;20545;-71
2023/04/29 04:44:29;;;;;;;13.60;9.90;;;;;;;;;;5064120;28;20025;-72
2023/04/29 04:46:57;;;;;;;13.98;10.60;;;;;;;;;;5055544;28;20529;-73
2023/04/29 04:49:24;;;;;;;14.82;10.15;;;;;;;;;;5055539;28;20029;-71
2023/04/29 04:51:50;;;;;;;12.38;10.18;;;;;;;;;;5055631;28;20021;-71
2023/04/29 04:54:17;;;;;;;11.30;9.55;;;;;;;;;;5055229;28;20075;-72
2023/04/29 04:56:44;;;;;;;11.77;10.10;;;;;;;;;;5055237;28;20104;-71
2023/04/29 04:59:10;;;;;;;12.00;9.10;;;;;;;;;;5055355;28;20033;-72
2023/04/29 05:01:37;;;;;;;12.40;9.18;;;;;;;;;;5055453;28;20017;-71
2023/04/29 05:04:03;;;;;;;10.57;9.07;;;;;;;;;;5055189;28;20035;-72
2023/04/29 05:06:30;;;;;;;11.18;9.10;;;;;;;;;;5055322;28;20083;-68
2023/04/29 05:08:57;;;;;;;11.27;9.60;;;;;;;;;;5055311;28;20044;-71
2023/04/29 05:11:23;;;;;;;10.10;9.10;;;;;;;;;;5055102;28;20047;-71
2023/04/29 05:13:50;;;;;;;11.07;9.30;;;;;;;;;;5058417;28;20378;-72
2023/04/29 05:16:17;;;;;;;14.40;10.95;;;;;;;;;;5073781;28;20070;-70
2023/04/29 05:18:44;;;;;;;11.35;9.70;;;;;;;;;;5073662;28;20024;-70
2023/04/29 05:21:11;;;;;;;16.27;11.75;;;;;;;;;;5073891;28;20028;-70
2023/04/29 05:23:38;;;;;;;11.80;10.18;;;;;;;;;;5073696;28;20012;-71
2023/04/29 05:26:05;;;;;;;18.75;10.90;;;;;;;;;;5073240;28;20439;-70
2023/04/29 05:28:31;;;;;;;12.13;10.85;;;;;;;;;;5070957;28;20024;-69
2023/04/29 05:30:58;;;;;;;13.20;10.98;;;;;;;;;;5073437;28;20020;-75
2023/04/29 05:33:25;;;;;;;21.52;15.82;;;;;;;;;;5073381;28;20025;-71
2023/04/29 05:35:51;;;;;;;19.83;15.75;;;;;;;;;;5070706;28;20021;-73
2023/04/29 05:38:18;;;;;;;14.57;12.20;;;;;;;;;;5055332;28;20445;-70
2023/04/29 05:40:44;;;;;;;15.27;12.75;;;;;;;;;;5073148;28;20027;-70
2023/04/29 05:43:11;;;;;;;13.65;11.15;;;;;;;;;;5070357;28;20020;-69
2023/04/29 05:45:38;;;;;;;13.15;11.68;;;;;;;;;;5073150;28;20019;-69
2023/04/29 05:48:05;;;;;;;15.95;12.77;;;;;;;;;;5072906;28;20024;-70
2023/04/29 05:50:31;;;;;;;18.65;13.95;;;;;;;;;;5068079;28;20466;-71
2023/04/29 05:52:58;;;;;;;18.08;13.98;;;;;;;;;;5073838;28;20029;-72
2023/04/29 05:55:24;;;;;;;16.30;14.20;;;;;;;;;;5072000;28;20103;-72
2023/04/29 05:57:51;;;;;;;13.10;11.52;;;;;;;;;;5070664;28;20031;-72
2023/04/29 06:00:18;;;;;;;14.15;12.15;;;;;;;;;;5073274;28;20489;-71
2023/04/29 06:02:44;;;;;;;14.25;12.48;;;;;;;;;;5073999;28;20025;-71
2023/04/29 06:05:11;;;;;;;42.22;32.38;;;;;;;;;;5074154;28;20028;-71
2023/04/29 06:07:39;;;;;;;20.60;17.38;;;;;;;;;;5073158;28;20027;-71
2023/04/29 06:10:06;;;;;;;14.13;10.85;;;;;;;;;;5073726;28;20473;-72
2023/04/29 06:12:33;;;;;;;12.35;10.05;;;;;;;;;;5074110;28;20055;-69
2023/04/29 06:15:00;;;;;;;11.07;9.82;;;;;;;;;;5073777;28;20025;-69
2023/04/29 06:17:29;;;;;;;12.00;10.40;;;;;;;;;;5073826;28;20095;-68
2023/04/29 06:19:55;;;;;;;14.95;10.20;;;;;;;;;;5073882;28;20035;-72
2023/04/29 06:22:22;;;;;;;14.30;12.10;;;;;;;;;;5073832;28;20025;-71
2023/04/29 06:24:49;;;;;;;11.40;10.07;;;;;;;;;;5073665;28;20103;-73
2023/04/29 06:27:16;;;;;;;11.30;9.82;;;;;;;;;;5073577;28;20044;-71
2023/04/29 06:29:42;;;;;;;14.40;10.40;;;;;;;;;;5072009;28;20490;-72
2023/04/29 06:32:09;;;;;;;12.32;10.63;;;;;;;;;;5073488;28;20024;-72
2023/04/29 06:34:36;;;;;;;11.82;10.18;;;;;;;;;;5055622;28;20497;-70
2023/04/29 06:37:03;;;;;;;10.75;9.68;;;;;;;;;;5073540;28;20025;-71
2023/04/29 06:39:30;;;;;;;13.30;9.98;;;;;;;;;;5073539;28;20053;-71
2023/04/29 06:41:57;;;;;;;12.50;10.38;;;;;;;;;;5073358;28;20032;-71
2023/04/29 06:44:24;;;;;;;12.55;10.05;;;;;;;;;;5073699;28;20036;-71
2023/04/29 06:46:51;;;;;;;11.70;10.13;;;;;;;;;;5060433;28;20029;-72
2023/04/29 06:49:18;;;;;;;11.57;10.00;;;;;;;;;;5053201;28;20477;-72
2023/04/29 06:51:44;;;;;;;13.73;9.57;;;;;;;;;;5053387;28;20055;-71
2023/04/29 06:54:11;;;;;;;11.93;10.07;;;;;;;;;;5053314;28;20103;-71
2023/04/29 06:56:38;;;;;;;12.65;11.23;;;;;;;;;;5053206;28;20026;-71
2023/04/29 06:59:04;;;;;;;11.93;9.77;;;;;;;;;;5053258;28;20029;-70
2023/04/29 07:01:31;;;;;;;11.30;10.10;;;;;;;;;;5053288;28;20029;-72
2023/04/29 07:03:58;;;;;;;12.15;10.43;;;;;;;;;;5053021;28;20466;-71
2023/04/29 07:06:25;;;;;;;13.40;10.07;;;;;;;;;;5053240;28;20108;-72
2023/04/29 07:08:52;;;;;;;12.30;9.93;;;;;;;;;;5053212;28;20028;-71
2023/04/29 07:11:19;;;;;;;11.40;10.23;;;;;;;;;;5052897;28;20028;-71
2023/04/29 07:13:45;;;;;;;11.77;10.43;;;;;;;;;;5053131;28;20021;-71
2023/04/29 07:16:21;;;;;;;12.32;10.40;;;;;;;;;;5053109;28;20385;-71
2023/04/29 07:18:48;;;;;;;14.32;10.50;;;;;;;;;;5052735;28;20509;-71
2023/04/29 07:21:14;;;;;;;14.98;10.50;;;;;;;;;;5053320;28;20029;-71
2023/04/29 07:23:41;;;;;;;11.30;10.10;;;;;;;;;;5053035;28;20142;-72
2023/04/29 07:26:18;;;;;;;14.60;11.88;;;;;;;;;;5052576;28;20110;-71
2023/04/29 07:28:45;;;;;;;12.50;11.20;;;;;;;;;;5065101;28;20021;-71
2023/04/29 07:31:13;;;;;;;14.00;10.65;;;;;;;;;;5072827;28;20021;-72
2023/04/29 07:33:39;;;;;;;13.70;10.48;;;;;;;;;;5073044;28;20488;-72
2023/04/29 07:36:06;;;;;;;14.57;10.30;;;;;;;;;;5073016;28;20385;-72
2023/04/29 07:38:33;;;;;;;11.55;10.45;;;;;;;;;;5072735;28;20021;-71
2023/04/29 07:41:00;;;;;;;13.73;10.05;;;;;;;;;;5072779;28;20392;-71
2023/04/29 07:43:27;;;;;;;15.27;11.15;;;;;;;;;;5072915;28;20035;-71
2023/04/29 07:45:53;;;;;;;11.82;10.40;;;;;;;;;;5072510;28;20017;-72
2023/04/29 07:48:20;;;;;;;11.30;10.10;;;;;;;;;;5072946;28;20020;-72
2023/04/29 07:50:47;;;;;;;11.35;10.25;;;;;;;;;;5072898;28;20378;-72
2023/04/29 07:53:14;;;;;;;12.82;9.93;;;;;;;;;;5072749;28;20025;-73
2023/04/29 07:55:41;;;;;;;15.00;10.30;;;;;;;;;;5072870;28;20496;-72
2023/04/29 07:58:08;;;;;;;12.05;10.75;;;;;;;;;;5072711;28;20033;-72
2023/04/29 08:00:34;;;;;;;11.85;10.63;;;;;;;;;;5072668;28;20025;-74
2023/04/29 08:03:01;;;;;;;15.25;12.68;;;;;;;;;;5072607;28;20025;-72
2023/04/29 08:05:29;;;;;;;14.13;11.55;;;;;;;;;;5072757;28;20024;-73
2023/04/29 08:07:55;;;;;;;12.93;10.98;;;;;;;;;;5072570;28;20020;-72
2023/04/29 08:10:22;;;;;;;15.85;12.50;;;;;;;;;;5072452;28;20021;-73
2023/04/29 08:12:49;;;;;;;23.60;15.43;;;;;;;;;;5072642;28;20023;-73
2023/04/29 08:15:17;;;;;;;27.23;20.77;;;;;;;;;;5072631;28;20019;-73
2023/04/29 08:17:44;;;;;;;20.08;16.60;;;;;;;;;;5072745;28;20103;-73
2023/04/29 08:20:11;;;;;;;19.05;15.07;;;;;;;;;;5072505;28;20039;-73
2023/04/29 08:22:38;;;;;;;17.13;13.55;;;;;;;;;;5072533;28;20024;-73
2023/04/29 08:25:05;;;;;;;14.85;10.52;;;;;;;;;;5072273;28;20052;-70
2023/04/29 08:27:31;;;;;;;12.20;11.00;;;;;;;;;;5072307;28;20393;-70
2023/04/29 08:29:58;;;;;;;40.78;29.38;;;;;;;;;;5072969;28;20028;-70
2023/04/29 08:32:25;;;;;;;16.77;12.20;;;;;;;;;;5075795;28;20082;-70
2023/04/29 08:34:51;;;;;;;15.45;11.68;;;;;;;;;;5075966;28;20028;-70
2023/04/29 08:37:19;;;;;;;15.40;11.43;;;;;;;;;;5075891;28;20092;-70
2023/04/29 08:39:46;;;;;;;13.90;10.85;;;;;;;;;;5075651;28;20108;-69
2023/04/29 08:42:13;;;;;;;15.55;12.00;;;;;;;;;;5075805;28;20025;-69
2023/04/29 08:44:41;;;;;;;14.45;11.43;;;;;;;;;;5075798;28;20386;-68
2023/04/29 08:47:08;;;;;;;21.48;14.82;;;;;;;;;;5075470;28;20066;-72
2023/04/29 08:49:36;;;;;;;15.23;13.27;;;;;;;;;;5075749;28;20104;-70
2023/04/29 08:52:03;;;;;;;15.25;12.93;;;;;;;;;;5075546;28;20453;-72
2023/04/29 08:54:31;;;;;;;17.60;13.05;;;;;;;;;;5075427;28;20017;-71
2023/04/29 08:56:58;;;;;;;21.67;16.00;;;;;;;;;;5075513;28;20031;-72
2023/04/29 08:59:25;;;;;;;23.85;16.58;;;;;;;;;;5075586;28;20078;-72
2023/04/29 09:01:53;;;;;;;18.40;16.17;;;;;;;;;;5075335;28;20020;-70
2023/04/29 09:04:25;;;;;;;21.05;17.48;;;;;;;;;;5075456;28;20020;-71
2023/04/29 09:06:52;;;;;;;23.33;17.17;;;;;;;;;;5075322;28;20024;-71
2023/04/29 09:09:19;;;;;;;49.22;37.47;;;;;;;;;;5075228;28;20024;-71
2023/04/29 09:11:46;;;;;;;37.22;28.05;;;;;;;;;;5075333;28;20103;-71
2023/04/29 09:14:13;;;;;;;102.85;73.53;;;;;;;;;;5075114;28;20025;-71
2023/04/29 09:16:39;;;;;;;273.17;211.15;;;;;;;;;;5074915;28;20021;-71
2023/04/29 09:19:06;;;;;;;374.23;271.90;;;;;;;;;;5075042;28;20078;-70
2023/04/29 09:21:33;;;;;;;251.20;182.65;;;;;;;;;;5075079;28;20081;-71
2023/04/29 09:24:00;;;;;;;115.53;83.18;;;;;;;;;;5074791;28;20021;-72
2023/04/29 09:26:27;;;;;;;47.60;31.98;;;;;;;;;;5074812;28;20044;-71
2023/04/29 09:29:15;;;;;;;24.15;17.30;;;;;;;;;;5074952;28;20028;-71
2023/04/29 09:31:41;;;;;;;23.20;17.20;;;;;;;;;;5074932;28;20377;-72
2023/04/29 09:34:08;;;;;;;23.05;16.65;;;;;;;;;;5074780;28;20017;-72
2023/04/29 09:36:36;;;;;;;24.85;17.55;;;;;;;;;;5072414;28;20029;-71
2023/04/29 09:39:09;;;;;;;24.52;16.13;;;;;;;;;;5075246;28;20017;-72
2023/04/29 09:41:36;;;;;;;31.25;22.95;;;;;;;;;;5074311;28;20038;-73
2023/04/29 09:44:04;;;;;;;22.00;15.57;;;;;;;;;;5074537;28;20362;-73
2023/04/29 09:46:32;;;;;;;23.77;17.80;;;;;;;;;;5074370;28;20028;-71
2023/04/29 09:48:59;;;;;;;24.08;15.98;;;;;;;;;;5074426;28;20074;-71
2023/04/29 09:51:25;;;;;;;18.65;15.40;;;;;;;;;;5074417;28;20047;-74
2023/04/29 09:53:52;;;;;;;27.23;20.92;;;;;;;;;;5074502;28;20021;-75
2023/04/29 09:56:20;;;;;;;44.50;30.48;;;;;;;;;;5074371;28;20031;-73
2023/04/29 09:58:47;;;;;;;140.93;96.97;;;;;;;;;;5074261;28;20155;-73
2023/04/29 10:01:16;;;;;;;33.78;27.25;;;;;;;;;;5074252;28;20024;-74
2023/04/29 10:03:43;;;;;;;29.77;22.67;;;;;;;;;;5074152;28;20020;-72
2023/04/29 10:06:10;;;;;;;40.08;27.45;;;;;;;;;;5074117;28;20074;-73
2023/04/29 10:08:40;;;;;;;37.67;27.17;;;;;;;;;;5074160;28;20416;-72
2023/04/29 10:11:07;;;;;;;31.13;22.25;;;;;;;;;;5073906;28;20105;-71
2023/04/29 10:13:37;;;;;;;39.40;26.38;;;;;;;;;;5074122;28;20024;-72
2023/04/29 10:16:03;;;;;;;41.30;28.75;;;;;;;;;;5073990;28;20028;-71
2023/04/29 10:18:37;;;;;;;40.50;26.50;;;;;;;;;;5073837;28;20044;-71
2023/04/29 10:21:08;;;;;;;34.75;23.52;;;;;;;;;;5072586;28;20382;-70
2023/04/29 10:23:36;;;;;;;31.48;22.30;;;;;;;;;;5072526;28;20021;-69
2023/04/29 10:26:03;;;;;;;31.45;20.83;;;;;;;;;;5073414;28;20075;-70
2023/04/29 10:28:31;;;;;;;95.43;57.10;;;;;;;;;;5073813;28;20381;-72
2023/04/29 10:31:03;;;;;;;45.15;28.75;;;;;;;;;;5073673;28;20477;-71
2023/04/29 10:33:33;;;;;;;40.00;27.20;;;;;;;;;;5073602;28;20103;-72
2023/04/29 10:36:00;;;;;;;38.60;26.13;;;;;;;;;;5073698;28;20412;-72
2023/04/29 10:38:32;;;;;;;37.05;25.33;;;;;;;;;;5073434;28;20024;-71
2023/04/29 10:41:03;;;;;;;39.20;24.40;;;;;;;;;;5073612;28;20040;-70
2023/04/29 10:43:30;;;;;;;31.75;24.05;;;;;;;;;;5073527;28;20103;-70
2023/04/29 10:46:17;;;;;;;32.20;21.33;;;;;;;;;;5073315;28;20100;-71
2023/04/29 10:48:44;;;;;;;54.78;32.90;;;;;;;;;;5073407;28;20028;-71
2023/04/29 10:51:11;;;;;;;64.13;40.90;;;;;;;;;;5073227;28;20158;-68
2023/04/29 10:53:57;;;;;;;75.05;46.70;;;;;;;;;;5072965;28;20024;-68
2023/04/29 10:56:35;;;;;;;49.50;33.63;;;;;;;;;;5073176;28;20025;-69
2023/04/29 10:59:02;;;;;;;38.45;25.58;;;;;;;;;;5073368;28;20024;-71
2023/04/29 11:01:41;;;;;;;34.22;23.55;;;;;;;;;;5073311;28;20024;-71
2023/04/29 11:04:09;;;;;;;42.72;28.13;;;;;;;;;;5073249;28;20492;-69
2023/04/29 11:06:36;;;;;;;41.75;28.67;;;;;;;;;;5073124;28;20039;-69
2023/04/29 11:09:07;;;;;;;35.20;23.23;;;;;;;;;;5072938;28;20028;-70
2023/04/29 11:11:43;;;;;;;46.03;27.80;;;;;;;;;;5072999;28;20420;-71
2023/04/29 11:14:12;;;;;;;90.68;52.92;;;;;;;;;;5073013;28;20095;-70
2023/04/29 11:16:48;;;;;;;98.85;58.75;;;;;;;;;;5072348;28;20029;-71
2023/04/29 11:19:16;;;;;;;290.88;258.70;;;;;;;;;;5066664;28;20036;-71
2023/04/29 11:21:44;;;;;;;395.65;355.85;;;;;;;;;;5072953;28;20381;-71
2023/04/29 11:24:11;;;;;;;278.20;249.55;;;;;;;;;;5066465;28;20075;-70
2023/04/29 11:26:38;;;;;;;254.20;226.85;;;;;;;;;;5052825;28;20047;-70
2023/04/29 11:29:07;;;;;;;306.67;273.63;;;;;;;;;;5052846;28;20027;-70
2023/04/29 11:31:33;;;;;;;391.63;350.00;;;;;;;;;;5053024;28;20075;-70
2023/04/29 11:34:00;;;;;;;256.13;228.20;;;;;;;;;;5053001;28;20066;-71
2023/04/29 11:36:27;;;;;;;104.30;79.97;;;;;;;;;;5052810;28;20483;-72
2023/04/29 11:38:54;;;;;;;67.88;41.47;;;;;;;;;;5062137;28;20109;-72
2023/04/29 11:41:21;;;;;;;49.72;33.60;;;;;;;;;;5055003;28;20529;-72
2023/04/29 11:43:48;;;;;;;48.95;30.88;;;;;;;;;;5052788;28;20504;-71
2023/04/29 11:46:15;;;;;;;50.67;32.15;;;;;;;;;;5052725;28;20108;-72
2023/04/29 11:48:51;;;;;;;46.92;29.45;;;;;;;;;;5052807;28;20470;-71
2023/04/29 11:51:18;;;;;;;43.67;28.27;;;;;;;;;;5052466;28;20035;-71
2023/04/29 11:53:45;;;;;;;49.40;28.98;;;;;;;;;;5052609;28;20097;-71
2023/04/29 11:56:11;;;;;;;40.13;26.95;;;;;;;;;;5052752;28;20032;-71
2023/04/29 11:58:38;;;;;;;36.65;24.73;;;;;;;;;;5052438;28;20063;-71
2023/04/29 12:01:05;;;;;;;37.38;24.27;;;;;;;;;;5052684;28;20488;-71
2023/04/29 12:03:32;;;;;;;129.98;107.25;;;;;;;;;;5052705;28;20021;-70
2023/04/29 12:05:59;;;;;;;45.40;32.13;;;;;;;;;;5054636;28;20082;-72
2023/04/29 12:08:27;;;;;;;39.60;22.92;;;;;;;;;;5056587;28;20117;-71
2023/04/29 12:10:56;;;;;;;38.05;23.30;;;;;;;;;;5056498;28;20025;-70
2023/04/29 12:13:23;;;;;;;39.88;23.73;;;;;;;;;;5056141;28;20505;-68
2023/04/29 12:15:51;;;;;;;31.58;21.52;;;;;;;;;;5056368;28;20070;-69
2023/04/29 12:18:18;;;;;;;34.17;21.67;;;;;;;;;;5056283;28;20101;-68
2023/04/29 12:20:47;;;;;;;28.75;21.25;;;;;;;;;;5056025;28;20031;-67
2023/04/29 12:23:17;;;;;;;45.05;22.98;;;;;;;;;;5056099;28;20165;-68
2023/04/29 12:25:55;;;;;;;34.50;24.15;;;;;;;;;;5055905;28;20036;-68
2023/04/29 12:28:21;;;;;;;37.70;23.00;;;;;;;;;;5056188;28;20075;-68
2023/04/29 12:30:48;;;;;;;36.75;23.70;;;;;;;;;;5056033;28;20020;-67
2023/04/29 12:33:20;;;;;;;40.63;24.52;;;;;;;;;;5055820;28;20033;-68
2023/04/29 12:35:47;;;;;;;;;;;;;;;;;;5056433;28;20473;-69
2023/04/29 12:38:16;;;;;;;41.03;24.17;;;;;;;;;;5055791;28;20358;-68
2023/04/29 12:40:44;;;;;;;35.70;23.15;;;;;;;;;;5063722;28;20496;-69
2023/04/29 12:43:11;;;;;;;36.03;21.95;;;;;;;;;;5058193;28;20104;-68
2023/04/29 12:45:38;;;;;;;36.33;22.73;;;;;;;;;;5055823;28;20021;-69
2023/04/29 12:48:05;;;;;;;32.88;22.33;;;;;;;;;;5055863;28;20458;-68
2023/04/29 12:50:36;;;;;;;42.80;23.67;;;;;;;;;;5058609;28;20409;-72
2023/04/29 12:53:04;;;;;;;44.13;24.23;;;;;;;;;;5055721;28;20017;-67
2023/04/29 12:55:33;;;;;;;48.95;25.05;;;;;;;;;;5055346;28;20385;-69
2023/04/29 12:57:59;;;;;;;236.60;115.65;;;;;;;;;;5065139;28;20491;-66
2023/04/29 13:00:26;;;;;;;138.80;75.22;;;;;;;;;;5058360;28;20025;-67
2023/04/29 13:02:53;;;;;;;65.95;36.08;;;;;;;;;;5055131;28;20029;-67
2023/04/29 13:05:21;;;;;;;35.90;22.25;;;;;;;;;;5055472;28;20029;-67
2023/04/29 13:07:47;;;;;;;34.30;21.05;;;;;;;;;;5055062;28;20104;-67
2023/04/29 13:10:15;;;;;;;35.95;21.67;;;;;;;;;;5055175;28;20036;-67
2023/04/29 13:12:41;;;;;;;31.20;20.60;;;;;;;;;;5055203;28;20021;-67
2023/04/29 13:15:09;;;;;;;31.85;19.98;;;;;;;;;;5055380;28;20025;-67
2023/04/29 13:17:36;;;;;;;38.80;22.77;;;;;;;;;;5054690;28;20429;-67
2023/04/29 13:20:03;;;;;;;32.60;21.60;;;;;;;;;;5055068;28;20036;-67
2023/04/29 13:22:30;;;;;;;32.92;21.20;;;;;;;;;;5055291;28;20032;-67
2023/04/29 13:24:56;;;;;;;48.95;22.75;;;;;;;;;;5054881;28;20060;-67
2023/04/29 13:27:23;;;;;;;47.75;25.40;;;;;;;;;;5054853;28;20045;-67
2023/04/29 13:29:50;;;;;;;41.28;24.63;;;;;;;;;;5062080;28;20052;-67
2023/04/29 13:32:17;;;;;;;44.15;23.75;;;;;;;;;;5071294;28;20025;-67
2023/04/29 13:34:44;;;;;;;35.05;21.67;;;;;;;;;;5073526;28;20054;-67
2023/04/29 13:37:11;;;;;;;33.28;22.35;;;;;;;;;;5070450;28;20025;-72
2023/04/29 13:39:38;;;;;;;36.10;23.27;;;;;;;;;;5069520;28;20020;-67
2023/04/29 13:42:05;;;;;;;36.72;21.33;;;;;;;;;;5070501;28;20040;-65
2023/04/29 13:44:31;;;;;;;31.40;20.63;;;;;;;;;;5071684;28;20105;-68
2023/04/29 13:46:58;;;;;;;28.83;20.52;;;;;;;;;;5071960;28;20028;-67
2023/04/29 13:49:26;;;;;;;33.85;24.08;;;;;;;;;;5071429;28;20031;-66
2023/04/29 13:51:52;;;;;;;38.05;24.58;;;;;;;;;;5071989;28;20016;-69
2023/04/29 13:54:20;;;;;;;37.33;24.92;;;;;;;;;;5071962;28;20543;-71
2023/04/29 13:56:48;;;;;;;39.22;26.20;;;;;;;;;;5072693;28;20020;-66
2023/04/29 13:59:15;;;;;;;47.85;28.17;;;;;;;;;;5072301;28;20032;-66
2023/04/29 14:01:43;;;;;;;40.60;26.20;;;;;;;;;;5070501;28;20024;-67
2023/04/29 14:04:10;;;;;;;50.92;31.83;;;;;;;;;;5071758;28;20073;-67
2023/04/29 14:06:36;;;;;;;57.80;34.20;;;;;;;;;;5069054;28;20478;-66
2023/04/29 14:09:03;;;;;;;55.08;33.20;;;;;;;;;;5073076;28;20105;-66
2023/04/29 14:11:30;;;;;;;56.42;32.65;;;;;;;;;;5071222;28;20027;-67
2023/04/29 14:13:57;;;;;;;51.08;30.88;;;;;;;;;;5072980;28;20082;-66
2023/04/29 14:16:23;;;;;;;48.08;30.17;;;;;;;;;;5072863;28;20377;-66
2023/04/29 14:18:50;;;;;;;52.65;31.27;;;;;;;;;;5071998;28;20016;-66
2023/04/29 14:21:17;;;;;;;57.00;34.08;;;;;;;;;;5072726;28;20067;-65